Accueil
METAR-TAF:

METAR-TAF

Aéroports :

Aéroport international de Banja Luka

Banja Luka, Bosnie-Herzégovine

latitude: 44-47N, longitude: 017-13E, altitude: 156 m

Observation

Le bulletin a été fait il y a 19 minutes, à 00:30 UTC
Vent 7 kt de sud/sud-est
Température 19°C
Humidité 88%
Pression 1014 hPa
Visibilité 10 km ou plus
pas de nuages en-dessous de 1500 mètres et pas de cumulonimbus.

METAR: LQBK 040030Z 16007KT CAVOK 19/17 Q1014 NOSIG

Heure: 02:49 (00:49 UTC)

Prévision

Le bulletin a été fait il y a 1 heure et 49 minutes, à 23:00 UTC
Prévision valable du 04 à 00 UTC au 04 à 24 UTC
Vent 5 kt de sud/sud-est
Visibilité 10 km ou plus
pas de nuages en-dessous de 1500 mètres et pas de cumulonimbus.

TAF: LQBK 032300Z 0400/0424 16005KT CAVOK TX33/0414Z TN15/0403Z

Observations et prévisions météorologiques de plus de 4000 aéroports (messages METAR et TAF).

Les stations disponibles sont représentées par des disques jaunes et rouges sur la carte.

Passer la souris dessus pour voir le nom de la station.

Cliquer dessus pour voir les observations et prévisions météorologiques.

Pour changer de carte: cliquez sur les boutons verts avec une croix noire pour zoomer, sur le bouton vert avec un tiret pour effectuer un zoom arrière, ou sur les flèches vertes pour les cartes adjacentes.


METAR-TAF: